sensor_id;sensor_type;location;lat;lon;timestamp;P1;durP1;ratioP1;P2;durP2;ratioP2
61756;SDS011;57225;61.460;24.060;2022-11-20T00:02:42;0.45;;;0.30;;
61756;SDS011;57225;61.460;24.060;2022-11-20T00:05:27;0.43;;;0.20;;
61756;SDS011;57225;61.460;24.060;2022-11-20T00:08:11;0.20;;;0.10;;
61756;SDS011;57225;61.460;24.060;2022-11-20T00:10:56;0.75;;;0.22;;
61756;SDS011;57225;61.460;24.060;2022-11-20T00:13:40;0.35;;;0.30;;
61756;SDS011;57225;61.460;24.060;2022-11-20T00:16:25;0.20;;;0.20;;
61756;SDS011;57225;61.460;24.060;2022-11-20T00:19:11;0.30;;;0.15;;
61756;SDS011;57225;61.460;24.060;2022-11-20T00:21:55;0.30;;;0.28;;
61756;SDS011;57225;61.460;24.060;2022-11-20T00:24:40;0.17;;;0.10;;
61756;SDS011;57225;61.460;24.060;2022-11-20T00:27:25;0.17;;;0.10;;
61756;SDS011;57225;61.460;24.060;2022-11-20T00:30:09;0.35;;;0.20;;
61756;SDS011;57225;61.460;24.060;2022-11-20T00:32:56;0.40;;;0.20;;
61756;SDS011;57225;61.460;24.060;2022-11-20T00:35:40;0.25;;;0.25;;
61756;SDS011;57225;61.460;24.060;2022-11-20T00:38:25;0.10;;;0.10;;
61756;SDS011;57225;61.460;24.060;2022-11-20T00:41:10;0.10;;;0.10;;
61756;SDS011;57225;61.460;24.060;2022-11-20T00:43:56;2.13;;;0.20;;
61756;SDS011;57225;61.460;24.060;2022-11-20T00:46:40;0.60;;;0.20;;
61756;SDS011;57225;61.460;24.060;2022-11-20T00:49:25;0.47;;;0.20;;
61756;SDS011;57225;61.460;24.060;2022-11-20T00:52:09;0.08;;;0.08;;
61756;SDS011;57225;61.460;24.060;2022-11-20T00:54:54;0.30;;;0.15;;
61756;SDS011;57225;61.460;24.060;2022-11-20T00:57:38;0.10;;;0.10;;
61756;SDS011;57225;61.460;24.060;2022-11-20T01:00:23;0.20;;;0.20;;
61756;SDS011;57225;61.460;24.060;2022-11-20T01:03:07;0.22;;;0.10;;
61756;SDS011;57225;61.460;24.060;2022-11-20T01:05:52;0.25;;;0.15;;
61756;SDS011;57225;61.460;24.060;2022-11-20T01:08:37;0.50;;;0.20;;
61756;SDS011;57225;61.460;24.060;2022-11-20T01:11:22;0.73;;;0.10;;
61756;SDS011;57225;61.460;24.060;2022-11-20T01:14:13;0.85;;;0.20;;
61756;SDS011;57225;61.460;24.060;2022-11-20T01:16:58;0.73;;;0.40;;
61756;SDS011;57225;61.460;24.060;2022-11-20T01:19:43;0.13;;;0.13;;
61756;SDS011;57225;61.460;24.060;2022-11-20T01:22:27;0.60;;;0.28;;
61756;SDS011;57225;61.460;24.060;2022-11-20T01:25:12;2.72;;;0.20;;
61756;SDS011;57225;61.460;24.060;2022-11-20T01:27:56;0.20;;;0.10;;
61756;SDS011;57225;61.460;24.060;2022-11-20T01:30:41;0.43;;;0.20;;
61756;SDS011;57225;61.460;24.060;2022-11-20T01:33:25;0.65;;;0.30;;
61756;SDS011;57225;61.460;24.060;2022-11-20T01:36:10;0.77;;;0.20;;
61756;SDS011;57225;61.460;24.060;2022-11-20T01:38:56;0.35;;;0.20;;
61756;SDS011;57225;61.460;24.060;2022-11-20T01:41:42;0.47;;;0.30;;
61756;SDS011;57225;61.460;24.060;2022-11-20T01:44:51;0.82;;;0.30;;
61756;SDS011;57225;61.460;24.060;2022-11-20T01:47:40;1.08;;;0.20;;
61756;SDS011;57225;61.460;24.060;2022-11-20T01:50:29;0.75;;;0.32;;
61756;SDS011;57225;61.460;24.060;2022-11-20T01:53:14;0.10;;;0.10;;
61756;SDS011;57225;61.460;24.060;2022-11-20T01:56:03;0.90;;;0.30;;
61756;SDS011;57225;61.460;24.060;2022-11-20T01:58:54;1.40;;;0.30;;
61756;SDS011;57225;61.460;24.060;2022-11-20T02:01:42;0.85;;;0.20;;
61756;SDS011;57225;61.460;24.060;2022-11-20T02:04:26;0.47;;;0.28;;
61756;SDS011;57225;61.460;24.060;2022-11-20T02:07:10;0.10;;;0.10;;
61756;SDS011;57225;61.460;24.060;2022-11-20T02:09:56;0.45;;;0.20;;
61756;SDS011;57225;61.460;24.060;2022-11-20T02:12:40;0.20;;;0.13;;
61756;SDS011;57225;61.460;24.060;2022-11-20T02:15:43;0.15;;;0.13;;
61756;SDS011;57225;61.460;24.060;2022-11-20T02:18:28;2.75;;;0.40;;
61756;SDS011;57225;61.460;24.060;2022-11-20T02:24:09;0.10;;;0.10;;
61756;SDS011;57225;61.460;24.060;2022-11-20T02:26:58;0.30;;;0.22;;
61756;SDS011;57225;61.460;24.060;2022-11-20T02:32:32;0.43;;;0.30;;
61756;SDS011;57225;61.460;24.060;2022-11-20T02:38:02;1.75;;;0.20;;
61756;SDS011;57225;61.460;24.060;2022-11-20T02:40:47;0.38;;;0.20;;
61756;SDS011;57225;61.460;24.060;2022-11-20T02:43:31;0.20;;;0.20;;
61756;SDS011;57225;61.460;24.060;2022-11-20T02:46:16;0.20;;;0.20;;
61756;SDS011;57225;61.460;24.060;2022-11-20T02:49:03;0.13;;;0.13;;
61756;SDS011;57225;61.460;24.060;2022-11-20T02:51:48;0.45;;;0.20;;
61756;SDS011;57225;61.460;24.060;2022-11-20T02:54:33;0.30;;;0.30;;
61756;SDS011;57225;61.460;24.060;2022-11-20T02:57:17;0.20;;;0.20;;
61756;SDS011;57225;61.460;24.060;2022-11-20T03:00:02;0.20;;;0.10;;
61756;SDS011;57225;61.460;24.060;2022-11-20T03:02:47;0.43;;;0.30;;
61756;SDS011;57225;61.460;24.060;2022-11-20T03:05:32;0.10;;;0.10;;
61756;SDS011;57225;61.460;24.060;2022-11-20T03:08:16;0.30;;;0.20;;
61756;SDS011;57225;61.460;24.060;2022-11-20T03:11:05;0.45;;;0.20;;
61756;SDS011;57225;61.460;24.060;2022-11-20T03:13:51;2.38;;;0.20;;
61756;SDS011;57225;61.460;24.060;2022-11-20T03:16:35;0.52;;;0.25;;
61756;SDS011;57225;61.460;24.060;2022-11-20T03:19:20;0.25;;;0.13;;
61756;SDS011;57225;61.460;24.060;2022-11-20T03:22:04;1.02;;;0.20;;
61756;SDS011;57225;61.460;24.060;2022-11-20T03:24:49;0.10;;;0.10;;
61756;SDS011;57225;61.460;24.060;2022-11-20T03:27:34;3.22;;;0.28;;
61756;SDS011;57225;61.460;24.060;2022-11-20T03:30:18;1.23;;;0.30;;
61756;SDS011;57225;61.460;24.060;2022-11-20T03:33:03;0.70;;;0.30;;
61756;SDS011;57225;61.460;24.060;2022-11-20T03:35:47;0.32;;;0.25;;
61756;SDS011;57225;61.460;24.060;2022-11-20T03:38:31;0.50;;;0.30;;
61756;SDS011;57225;61.460;24.060;2022-11-20T03:41:17;0.50;;;0.30;;
61756;SDS011;57225;61.460;24.060;2022-11-20T03:44:05;0.20;;;0.20;;
61756;SDS011;57225;61.460;24.060;2022-11-20T03:46:51;0.20;;;0.13;;
61756;SDS011;57225;61.460;24.060;2022-11-20T03:49:35;0.35;;;0.35;;
61756;SDS011;57225;61.460;24.060;2022-11-20T03:52:20;0.20;;;0.20;;
61756;SDS011;57225;61.460;24.060;2022-11-20T03:55:05;0.20;;;0.20;;
61756;SDS011;57225;61.460;24.060;2022-11-20T03:57:50;0.47;;;0.30;;
61756;SDS011;57225;61.460;24.060;2022-11-20T04:00:35;0.57;;;0.55;;
61756;SDS011;57225;61.460;24.060;2022-11-20T04:03:20;0.40;;;0.28;;
61756;SDS011;57225;61.460;24.060;2022-11-20T04:06:05;0.60;;;0.30;;
61756;SDS011;57225;61.460;24.060;2022-11-20T04:08:53;0.45;;;0.20;;
61756;SDS011;57225;61.460;24.060;2022-11-20T04:11:39;0.20;;;0.20;;
61756;SDS011;57225;61.460;24.060;2022-11-20T04:14:23;0.38;;;0.30;;
61756;SDS011;57225;61.460;24.060;2022-11-20T04:17:08;0.40;;;0.30;;
61756;SDS011;57225;61.460;24.060;2022-11-20T04:19:52;0.50;;;0.30;;
61756;SDS011;57225;61.460;24.060;2022-11-20T04:22:37;0.80;;;0.25;;
61756;SDS011;57225;61.460;24.060;2022-11-20T04:25:21;0.63;;;0.30;;
61756;SDS011;57225;61.460;24.060;2022-11-20T04:28:06;0.20;;;0.20;;
61756;SDS011;57225;61.460;24.060;2022-11-20T04:30:50;0.22;;;0.17;;
61756;SDS011;57225;61.460;24.060;2022-11-20T04:33:35;0.40;;;0.30;;
61756;SDS011;57225;61.460;24.060;2022-11-20T04:36:21;0.40;;;0.20;;
61756;SDS011;57225;61.460;24.060;2022-11-20T04:39:11;0.40;;;0.30;;
61756;SDS011;57225;61.460;24.060;2022-11-20T04:41:56;0.50;;;0.40;;
61756;SDS011;57225;61.460;24.060;2022-11-20T04:44:59;0.45;;;0.30;;
61756;SDS011;57225;61.460;24.060;2022-11-20T04:47:44;0.40;;;0.40;;
61756;SDS011;57225;61.460;24.060;2022-11-20T04:50:28;0.40;;;0.28;;
61756;SDS011;57225;61.460;24.060;2022-11-20T04:53:13;1.52;;;0.55;;
61756;SDS011;57225;61.460;24.060;2022-11-20T04:56:01;1.75;;;0.35;;
61756;SDS011;57225;61.460;24.060;2022-11-20T04:58:46;1.00;;;0.38;;
61756;SDS011;57225;61.460;24.060;2022-11-20T05:01:30;0.45;;;0.30;;
61756;SDS011;57225;61.460;24.060;2022-11-20T05:04:16;1.20;;;0.40;;
61756;SDS011;57225;61.460;24.060;2022-11-20T05:07:00;0.52;;;0.40;;
61756;SDS011;57225;61.460;24.060;2022-11-20T05:09:45;1.48;;;0.40;;
61756;SDS011;57225;61.460;24.060;2022-11-20T05:12:29;1.23;;;0.40;;
61756;SDS011;57225;61.460;24.060;2022-11-20T05:15:15;0.63;;;0.30;;
61756;SDS011;57225;61.460;24.060;2022-11-20T05:17:59;1.17;;;0.50;;
61756;SDS011;57225;61.460;24.060;2022-11-20T05:20:43;0.43;;;0.40;;
61756;SDS011;57225;61.460;24.060;2022-11-20T05:23:28;0.85;;;0.47;;
61756;SDS011;57225;61.460;24.060;2022-11-20T05:26:14;0.55;;;0.30;;
61756;SDS011;57225;61.460;24.060;2022-11-20T05:29:01;1.42;;;0.50;;
61756;SDS011;57225;61.460;24.060;2022-11-20T05:31:45;1.10;;;0.40;;
61756;SDS011;57225;61.460;24.060;2022-11-20T05:34:29;0.77;;;0.50;;
61756;SDS011;57225;61.460;24.060;2022-11-20T05:37:14;0.80;;;0.55;;
61756;SDS011;57225;61.460;24.060;2022-11-20T05:39:58;1.35;;;0.47;;
61756;SDS011;57225;61.460;24.060;2022-11-20T05:42:43;0.65;;;0.60;;
61756;SDS011;57225;61.460;24.060;2022-11-20T05:45:27;0.75;;;0.60;;
61756;SDS011;57225;61.460;24.060;2022-11-20T05:48:12;1.05;;;0.70;;
61756;SDS011;57225;61.460;24.060;2022-11-20T05:50:57;0.80;;;0.60;;
61756;SDS011;57225;61.460;24.060;2022-11-20T05:53:42;0.60;;;0.50;;
61756;SDS011;57225;61.460;24.060;2022-11-20T05:56:26;1.35;;;0.80;;
61756;SDS011;57225;61.460;24.060;2022-11-20T05:59:11;2.70;;;0.85;;
61756;SDS011;57225;61.460;24.060;2022-11-20T06:01:55;1.83;;;0.85;;
61756;SDS011;57225;61.460;24.060;2022-11-20T06:04:40;1.10;;;0.70;;
61756;SDS011;57225;61.460;24.060;2022-11-20T06:07:24;1.75;;;0.80;;
61756;SDS011;57225;61.460;24.060;2022-11-20T06:10:08;4.28;;;0.85;;
61756;SDS011;57225;61.460;24.060;2022-11-20T06:12:53;2.85;;;1.00;;
61756;SDS011;57225;61.460;24.060;2022-11-20T06:15:37;3.50;;;0.77;;
61756;SDS011;57225;61.460;24.060;2022-11-20T06:18:22;1.70;;;1.00;;
61756;SDS011;57225;61.460;24.060;2022-11-20T06:21:07;1.58;;;0.90;;
61756;SDS011;57225;61.460;24.060;2022-11-20T06:23:54;3.00;;;1.05;;
61756;SDS011;57225;61.460;24.060;2022-11-20T06:26:39;2.60;;;0.80;;
61756;SDS011;57225;61.460;24.060;2022-11-20T06:29:23;2.53;;;1.00;;
61756;SDS011;57225;61.460;24.060;2022-11-20T06:32:08;3.13;;;1.10;;
61756;SDS011;57225;61.460;24.060;2022-11-20T06:34:52;2.28;;;1.35;;
61756;SDS011;57225;61.460;24.060;2022-11-20T06:37:37;2.03;;;1.08;;
61756;SDS011;57225;61.460;24.060;2022-11-20T06:40:21;4.05;;;1.20;;
61756;SDS011;57225;61.460;24.060;2022-11-20T06:43:06;2.28;;;1.17;;
61756;SDS011;57225;61.460;24.060;2022-11-20T06:45:53;1.90;;;1.08;;
61756;SDS011;57225;61.460;24.060;2022-11-20T06:48:39;4.00;;;1.10;;
61756;SDS011;57225;61.460;24.060;2022-11-20T06:51:24;3.42;;;1.13;;
61756;SDS011;57225;61.460;24.060;2022-11-20T06:54:09;2.10;;;1.00;;
61756;SDS011;57225;61.460;24.060;2022-11-20T06:56:54;1.88;;;0.80;;
61756;SDS011;57225;61.460;24.060;2022-11-20T06:59:38;1.73;;;1.10;;
61756;SDS011;57225;61.460;24.060;2022-11-20T07:02:22;1.85;;;1.27;;
61756;SDS011;57225;61.460;24.060;2022-11-20T07:05:07;2.47;;;1.20;;
61756;SDS011;57225;61.460;24.060;2022-11-20T07:07:51;4.55;;;1.30;;
61756;SDS011;57225;61.460;24.060;2022-11-20T07:10:36;2.13;;;1.50;;
61756;SDS011;57225;61.460;24.060;2022-11-20T07:13:20;7.05;;;3.55;;
61756;SDS011;57225;61.460;24.060;2022-11-20T07:16:05;1.98;;;1.15;;
61756;SDS011;57225;61.460;24.060;2022-11-20T07:18:51;3.25;;;1.20;;
61756;SDS011;57225;61.460;24.060;2022-11-20T07:21:35;2.60;;;1.38;;
61756;SDS011;57225;61.460;24.060;2022-11-20T07:24:20;4.80;;;1.30;;
61756;SDS011;57225;61.460;24.060;2022-11-20T07:27:04;1.70;;;1.20;;
61756;SDS011;57225;61.460;24.060;2022-11-20T07:29:48;2.63;;;1.50;;
61756;SDS011;57225;61.460;24.060;2022-11-20T07:32:33;4.15;;;1.23;;
61756;SDS011;57225;61.460;24.060;2022-11-20T07:35:17;5.65;;;1.50;;
61756;SDS011;57225;61.460;24.060;2022-11-20T07:38:02;4.75;;;1.35;;
61756;SDS011;57225;61.460;24.060;2022-11-20T07:40:53;3.47;;;1.48;;
61756;SDS011;57225;61.460;24.060;2022-11-20T07:43:39;5.07;;;1.60;;
61756;SDS011;57225;61.460;24.060;2022-11-20T07:46:23;2.80;;;1.67;;
61756;SDS011;57225;61.460;24.060;2022-11-20T07:49:08;3.22;;;1.80;;
61756;SDS011;57225;61.460;24.060;2022-11-20T07:51:52;5.28;;;2.00;;
61756;SDS011;57225;61.460;24.060;2022-11-20T07:54:37;3.35;;;1.77;;
61756;SDS011;57225;61.460;24.060;2022-11-20T07:57:22;3.05;;;1.60;;
61756;SDS011;57225;61.460;24.060;2022-11-20T08:00:07;3.67;;;1.75;;
61756;SDS011;57225;61.460;24.060;2022-11-20T08:02:52;2.33;;;1.50;;
61756;SDS011;57225;61.460;24.060;2022-11-20T08:05:37;4.68;;;1.60;;
61756;SDS011;57225;61.460;24.060;2022-11-20T08:08:21;6.25;;;1.80;;
61756;SDS011;57225;61.460;24.060;2022-11-20T08:11:06;2.70;;;1.50;;
61756;SDS011;57225;61.460;24.060;2022-11-20T08:14:09;6.05;;;1.70;;
61756;SDS011;57225;61.460;24.060;2022-11-20T08:16:57;2.67;;;1.50;;
61756;SDS011;57225;61.460;24.060;2022-11-20T08:19:41;3.83;;;1.40;;
61756;SDS011;57225;61.460;24.060;2022-11-20T08:22:25;2.47;;;1.50;;
61756;SDS011;57225;61.460;24.060;2022-11-20T08:25:10;4.38;;;1.60;;
61756;SDS011;57225;61.460;24.060;2022-11-20T08:27:57;2.15;;;1.38;;
61756;SDS011;57225;61.460;24.060;2022-11-20T08:30:42;6.93;;;1.70;;
61756;SDS011;57225;61.460;24.060;2022-11-20T08:33:27;4.82;;;1.60;;
61756;SDS011;57225;61.460;24.060;2022-11-20T08:36:13;4.60;;;1.48;;
61756;SDS011;57225;61.460;24.060;2022-11-20T08:38:58;4.80;;;1.90;;
61756;SDS011;57225;61.460;24.060;2022-11-20T08:41:42;5.68;;;1.42;;
61756;SDS011;57225;61.460;24.060;2022-11-20T08:44:26;2.78;;;1.25;;
61756;SDS011;57225;61.460;24.060;2022-11-20T08:47:12;3.60;;;1.30;;
61756;SDS011;57225;61.460;24.060;2022-11-20T08:49:56;3.30;;;1.20;;
61756;SDS011;57225;61.460;24.060;2022-11-20T08:52:41;2.05;;;1.20;;
61756;SDS011;57225;61.460;24.060;2022-11-20T08:55:25;2.28;;;1.02;;
61756;SDS011;57225;61.460;24.060;2022-11-20T08:58:10;2.33;;;1.10;;
61756;SDS011;57225;61.460;24.060;2022-11-20T09:00:54;2.08;;;1.08;;
61756;SDS011;57225;61.460;24.060;2022-11-20T09:03:39;7.05;;;1.70;;
61756;SDS011;57225;61.460;24.060;2022-11-20T09:06:23;1.58;;;0.98;;
61756;SDS011;57225;61.460;24.060;2022-11-20T09:09:07;4.50;;;1.30;;
61756;SDS011;57225;61.460;24.060;2022-11-20T09:11:52;3.15;;;1.55;;
61756;SDS011;57225;61.460;24.060;2022-11-20T09:14:36;2.17;;;1.23;;
61756;SDS011;57225;61.460;24.060;2022-11-20T09:17:21;1.65;;;0.95;;
61756;SDS011;57225;61.460;24.060;2022-11-20T09:20:05;1.75;;;1.10;;
61756;SDS011;57225;61.460;24.060;2022-11-20T09:22:50;4.57;;;1.50;;
61756;SDS011;57225;61.460;24.060;2022-11-20T09:25:34;1.50;;;1.00;;
61756;SDS011;57225;61.460;24.060;2022-11-20T09:28:18;4.47;;;1.48;;
61756;SDS011;57225;61.460;24.060;2022-11-20T09:31:14;2.38;;;0.90;;
61756;SDS011;57225;61.460;24.060;2022-11-20T09:34:05;3.25;;;1.50;;
61756;SDS011;57225;61.460;24.060;2022-11-20T09:36:50;6.30;;;1.40;;
61756;SDS011;57225;61.460;24.060;2022-11-20T09:39:34;4.90;;;1.30;;
61756;SDS011;57225;61.460;24.060;2022-11-20T09:42:27;3.30;;;1.50;;
61756;SDS011;57225;61.460;24.060;2022-11-20T09:49:27;3.55;;;1.38;;
61756;SDS011;57225;61.460;24.060;2022-11-20T09:55:23;5.47;;;1.75;;
61756;SDS011;57225;61.460;24.060;2022-11-20T09:58:31;4.43;;;1.52;;
61756;SDS011;57225;61.460;24.060;2022-11-20T10:01:20;2.72;;;1.40;;
61756;SDS011;57225;61.460;24.060;2022-11-20T10:04:12;5.53;;;1.90;;
61756;SDS011;57225;61.460;24.060;2022-11-20T10:09:57;4.32;;;1.80;;
61756;SDS011;57225;61.460;24.060;2022-11-20T10:27:58;3.38;;;1.98;;
61756;SDS011;57225;61.460;24.060;2022-11-20T10:30:44;4.50;;;2.00;;
61756;SDS011;57225;61.460;24.060;2022-11-20T10:33:42;5.45;;;1.90;;
61756;SDS011;57225;61.460;24.060;2022-11-20T10:36:30;3.60;;;1.75;;
61756;SDS011;57225;61.460;24.060;2022-11-20T10:42:29;3.65;;;1.52;;
61756;SDS011;57225;61.460;24.060;2022-11-20T10:48:16;3.20;;;1.50;;
61756;SDS011;57225;61.460;24.060;2022-11-20T10:57:29;3.40;;;1.48;;
61756;SDS011;57225;61.460;24.060;2022-11-20T11:00:30;3.10;;;1.25;;
61756;SDS011;57225;61.460;24.060;2022-11-20T11:09:19;4.30;;;1.75;;
61756;SDS011;57225;61.460;24.060;2022-11-20T11:12:14;8.15;;;1.70;;
61756;SDS011;57225;61.460;24.060;2022-11-20T11:14:58;4.75;;;1.73;;
61756;SDS011;57225;61.460;24.060;2022-11-20T11:17:46;3.80;;;1.33;;
61756;SDS011;57225;61.460;24.060;2022-11-20T11:20:31;4.32;;;1.55;;
61756;SDS011;57225;61.460;24.060;2022-11-20T11:26:20;3.72;;;1.70;;
61756;SDS011;57225;61.460;24.060;2022-11-20T11:29:15;3.95;;;1.77;;
61756;SDS011;57225;61.460;24.060;2022-11-20T11:32:11;6.50;;;1.80;;
61756;SDS011;57225;61.460;24.060;2022-11-20T11:35:03;2.88;;;1.25;;
61756;SDS011;57225;61.460;24.060;2022-11-20T11:37:49;3.60;;;1.63;;
61756;SDS011;57225;61.460;24.060;2022-11-20T11:40:35;4.18;;;1.67;;
61756;SDS011;57225;61.460;24.060;2022-11-20T11:43:26;3.83;;;1.40;;
61756;SDS011;57225;61.460;24.060;2022-11-20T11:46:33;4.55;;;1.67;;
61756;SDS011;57225;61.460;24.060;2022-11-20T11:49:20;5.30;;;1.30;;
61756;SDS011;57225;61.460;24.060;2022-11-20T11:54:58;4.82;;;1.90;;
61756;SDS011;57225;61.460;24.060;2022-11-20T12:04:07;4.43;;;1.77;;
61756;SDS011;57225;61.460;24.060;2022-11-20T12:07:12;6.30;;;2.00;;
61756;SDS011;57225;61.460;24.060;2022-11-20T12:10:04;3.10;;;1.75;;
61756;SDS011;57225;61.460;24.060;2022-11-20T12:13:01;4.32;;;1.25;;
61756;SDS011;57225;61.460;24.060;2022-11-20T12:15:48;4.30;;;2.10;;
61756;SDS011;57225;61.460;24.060;2022-11-20T12:18:33;4.45;;;1.88;;
61756;SDS011;57225;61.460;24.060;2022-11-20T12:32:56;4.38;;;1.77;;
61756;SDS011;57225;61.460;24.060;2022-11-20T13:00:28;2.90;;;1.65;;
61756;SDS011;57225;61.460;24.060;2022-11-20T13:06:17;4.78;;;1.70;;
61756;SDS011;57225;61.460;24.060;2022-11-20T13:09:02;7.07;;;1.67;;
61756;SDS011;57225;61.460;24.060;2022-11-20T13:12:03;2.90;;;1.60;;
61756;SDS011;57225;61.460;24.060;2022-11-20T13:17:57;5.88;;;1.70;;
61756;SDS011;57225;61.460;24.060;2022-11-20T13:20:44;4.75;;;1.85;;
61756;SDS011;57225;61.460;24.060;2022-11-20T13:23:29;7.07;;;1.90;;
61756;SDS011;57225;61.460;24.060;2022-11-20T13:26:15;4.78;;;1.52;;
61756;SDS011;57225;61.460;24.060;2022-11-20T13:29:08;2.53;;;1.50;;
61756;SDS011;57225;61.460;24.060;2022-11-20T13:32:15;3.22;;;1.60;;
61756;SDS011;57225;61.460;24.060;2022-11-20T13:35:02;3.05;;;1.40;;
61756;SDS011;57225;61.460;24.060;2022-11-20T13:37:48;4.15;;;1.67;;
61756;SDS011;57225;61.460;24.060;2022-11-20T13:40:57;3.20;;;1.33;;
61756;SDS011;57225;61.460;24.060;2022-11-20T13:43:42;9.98;;;1.70;;
61756;SDS011;57225;61.460;24.060;2022-11-20T13:46:38;4.45;;;1.65;;
61756;SDS011;57225;61.460;24.060;2022-11-20T13:49:30;5.72;;;1.75;;
61756;SDS011;57225;61.460;24.060;2022-11-20T13:58:19;4.43;;;1.25;;
61756;SDS011;57225;61.460;24.060;2022-11-20T14:01:28;3.28;;;1.35;;
61756;SDS011;57225;61.460;24.060;2022-11-20T14:04:18;6.70;;;1.48;;
61756;SDS011;57225;61.460;24.060;2022-11-20T14:07:09;5.70;;;1.42;;
61756;SDS011;57225;61.460;24.060;2022-11-20T14:09:55;6.53;;;1.83;;
61756;SDS011;57225;61.460;24.060;2022-11-20T14:12:40;4.72;;;1.65;;
61756;SDS011;57225;61.460;24.060;2022-11-20T14:15:32;1.92;;;1.27;;
61756;SDS011;57225;61.460;24.060;2022-11-20T14:18:20;6.05;;;1.75;;
61756;SDS011;57225;61.460;24.060;2022-11-20T14:21:08;8.88;;;1.60;;
61756;SDS011;57225;61.460;24.060;2022-11-20T14:23:54;4.65;;;1.70;;
61756;SDS011;57225;61.460;24.060;2022-11-20T14:26:48;4.63;;;1.63;;
61756;SDS011;57225;61.460;24.060;2022-11-20T14:29:37;4.55;;;1.70;;
61756;SDS011;57225;61.460;24.060;2022-11-20T14:32:23;5.10;;;1.60;;
61756;SDS011;57225;61.460;24.060;2022-11-20T14:35:18;5.00;;;1.70;;
61756;SDS011;57225;61.460;24.060;2022-11-20T14:38:12;3.25;;;1.65;;
61756;SDS011;57225;61.460;24.060;2022-11-20T14:41:05;3.42;;;1.45;;
61756;SDS011;57225;61.460;24.060;2022-11-20T14:43:53;4.07;;;1.88;;
61756;SDS011;57225;61.460;24.060;2022-11-20T14:46:40;2.75;;;1.73;;
61756;SDS011;57225;61.460;24.060;2022-11-20T14:49:25;5.72;;;1.80;;
61756;SDS011;57225;61.460;24.060;2022-11-20T14:52:12;3.15;;;1.70;;
61756;SDS011;57225;61.460;24.060;2022-11-20T14:54:58;3.28;;;1.60;;
61756;SDS011;57225;61.460;24.060;2022-11-20T14:57:43;4.13;;;1.67;;
61756;SDS011;57225;61.460;24.060;2022-11-20T15:00:39;6.05;;;1.70;;
61756;SDS011;57225;61.460;24.060;2022-11-20T15:03:30;4.95;;;2.17;;
61756;SDS011;57225;61.460;24.060;2022-11-20T15:06:24;5.57;;;2.03;;
61756;SDS011;57225;61.460;24.060;2022-11-20T15:09:13;6.38;;;2.40;;
61756;SDS011;57225;61.460;24.060;2022-11-20T15:11:59;4.28;;;1.98;;
61756;SDS011;57225;61.460;24.060;2022-11-20T15:14:45;5.20;;;2.10;;
61756;SDS011;57225;61.460;24.060;2022-11-20T15:17:30;4.78;;;1.70;;
61756;SDS011;57225;61.460;24.060;2022-11-20T15:20:16;6.18;;;1.98;;
61756;SDS011;57225;61.460;24.060;2022-11-20T15:23:14;5.68;;;2.15;;
61756;SDS011;57225;61.460;24.060;2022-11-20T15:26:04;3.95;;;1.67;;
61756;SDS011;57225;61.460;24.060;2022-11-20T15:28:49;4.78;;;1.85;;
61756;SDS011;57225;61.460;24.060;2022-11-20T15:31:34;3.58;;;1.73;;
61756;SDS011;57225;61.460;24.060;2022-11-20T15:34:18;5.18;;;1.77;;
61756;SDS011;57225;61.460;24.060;2022-11-20T15:37:03;4.38;;;1.90;;
61756;SDS011;57225;61.460;24.060;2022-11-20T15:39:47;3.22;;;1.83;;
61756;SDS011;57225;61.460;24.060;2022-11-20T15:42:32;3.25;;;1.80;;
61756;SDS011;57225;61.460;24.060;2022-11-20T15:45:17;4.50;;;2.03;;
61756;SDS011;57225;61.460;24.060;2022-11-20T15:48:01;5.50;;;2.35;;
61756;SDS011;57225;61.460;24.060;2022-11-20T15:51:00;5.93;;;2.00;;
61756;SDS011;57225;61.460;24.060;2022-11-20T15:53:49;5.47;;;2.58;;
61756;SDS011;57225;61.460;24.060;2022-11-20T15:56:34;6.40;;;2.15;;
61756;SDS011;57225;61.460;24.060;2022-11-20T15:59:18;5.03;;;2.05;;
61756;SDS011;57225;61.460;24.060;2022-11-20T16:02:04;3.88;;;1.80;;
61756;SDS011;57225;61.460;24.060;2022-11-20T16:04:53;4.47;;;2.00;;
61756;SDS011;57225;61.460;24.060;2022-11-20T16:07:37;5.63;;;1.70;;
61756;SDS011;57225;61.460;24.060;2022-11-20T16:10:22;3.42;;;1.75;;
61756;SDS011;57225;61.460;24.060;2022-11-20T16:13:14;4.53;;;1.83;;
61756;SDS011;57225;61.460;24.060;2022-11-20T16:16:20;4.68;;;2.05;;
61756;SDS011;57225;61.460;24.060;2022-11-20T16:19:12;3.13;;;1.75;;
61756;SDS011;57225;61.460;24.060;2022-11-20T16:21:57;2.78;;;1.52;;
61756;SDS011;57225;61.460;24.060;2022-11-20T16:24:42;2.83;;;1.40;;
61756;SDS011;57225;61.460;24.060;2022-11-20T16:27:27;2.60;;;1.52;;
61756;SDS011;57225;61.460;24.060;2022-11-20T16:30:11;2.53;;;1.40;;
61756;SDS011;57225;61.460;24.060;2022-11-20T16:32:56;2.28;;;1.20;;
61756;SDS011;57225;61.460;24.060;2022-11-20T16:35:41;1.95;;;1.38;;
61756;SDS011;57225;61.460;24.060;2022-11-20T16:38:25;4.22;;;1.85;;
61756;SDS011;57225;61.460;24.060;2022-11-20T16:41:10;3.83;;;1.75;;
61756;SDS011;57225;61.460;24.060;2022-11-20T16:43:58;3.08;;;1.20;;
61756;SDS011;57225;61.460;24.060;2022-11-20T16:46:43;1.67;;;1.00;;
61756;SDS011;57225;61.460;24.060;2022-11-20T16:49:28;2.03;;;1.42;;
61756;SDS011;57225;61.460;24.060;2022-11-20T16:52:12;1.65;;;1.13;;
61756;SDS011;57225;61.460;24.060;2022-11-20T16:54:57;1.70;;;1.40;;
61756;SDS011;57225;61.460;24.060;2022-11-20T16:57:42;2.15;;;1.20;;
61756;SDS011;57225;61.460;24.060;2022-11-20T17:00:26;4.50;;;1.50;;
61756;SDS011;57225;61.460;24.060;2022-11-20T17:03:11;6.88;;;1.75;;
61756;SDS011;57225;61.460;24.060;2022-11-20T17:05:56;5.72;;;1.88;;
61756;SDS011;57225;61.460;24.060;2022-11-20T17:08:41;2.90;;;1.40;;
61756;SDS011;57225;61.460;24.060;2022-11-20T17:11:25;2.35;;;1.33;;
61756;SDS011;57225;61.460;24.060;2022-11-20T17:14:11;2.30;;;1.42;;
61756;SDS011;57225;61.460;24.060;2022-11-20T17:16:55;1.25;;;0.93;;
61756;SDS011;57225;61.460;24.060;2022-11-20T17:19:39;3.60;;;1.25;;
61756;SDS011;57225;61.460;24.060;2022-11-20T17:22:24;1.48;;;0.90;;
61756;SDS011;57225;61.460;24.060;2022-11-20T17:25:08;1.50;;;1.10;;
61756;SDS011;57225;61.460;24.060;2022-11-20T17:27:53;3.03;;;1.30;;
61756;SDS011;57225;61.460;24.060;2022-11-20T17:30:37;3.80;;;1.70;;
61756;SDS011;57225;61.460;24.060;2022-11-20T17:33:22;2.63;;;1.30;;
61756;SDS011;57225;61.460;24.060;2022-11-20T17:36:07;3.95;;;1.88;;
61756;SDS011;57225;61.460;24.060;2022-11-20T17:38:53;2.55;;;1.58;;
61756;SDS011;57225;61.460;24.060;2022-11-20T17:41:37;2.30;;;1.50;;
61756;SDS011;57225;61.460;24.060;2022-11-20T17:44:22;2.40;;;1.38;;
61756;SDS011;57225;61.460;24.060;2022-11-20T17:47:07;5.20;;;2.00;;
61756;SDS011;57225;61.460;24.060;2022-11-20T17:49:51;4.22;;;1.55;;
61756;SDS011;57225;61.460;24.060;2022-11-20T17:52:37;1.60;;;1.20;;
61756;SDS011;57225;61.460;24.060;2022-11-20T17:55:22;2.38;;;1.75;;
61756;SDS011;57225;61.460;24.060;2022-11-20T17:58:06;3.03;;;1.52;;
61756;SDS011;57225;61.460;24.060;2022-11-20T18:00:51;2.20;;;1.23;;
61756;SDS011;57225;61.460;24.060;2022-11-20T18:03:35;3.13;;;1.33;;
61756;SDS011;57225;61.460;24.060;2022-11-20T18:06:21;3.30;;;1.70;;
61756;SDS011;57225;61.460;24.060;2022-11-20T18:09:07;2.38;;;1.40;;
61756;SDS011;57225;61.460;24.060;2022-11-20T18:11:52;2.20;;;1.35;;
61756;SDS011;57225;61.460;24.060;2022-11-20T18:14:36;3.03;;;1.50;;
61756;SDS011;57225;61.460;24.060;2022-11-20T18:17:21;2.08;;;1.30;;
61756;SDS011;57225;61.460;24.060;2022-11-20T18:20:05;3.67;;;1.50;;
61756;SDS011;57225;61.460;24.060;2022-11-20T18:22:52;1.85;;;1.30;;